sensor_id;sensor_type;location;lat;lon;timestamp;P1;durP1;ratioP1;P2;durP2;ratioP2
24223;SDS011;12359;49.716;9.212;2023-05-14T00:01:23;0.20;;;0.20;;
24223;SDS011;12359;49.716;9.212;2023-05-14T00:03:49;0.20;;;0.20;;
24223;SDS011;12359;49.716;9.212;2023-05-14T00:06:15;0.20;;;0.20;;
24223;SDS011;12359;49.716;9.212;2023-05-14T00:08:41;0.10;;;0.10;;
24223;SDS011;12359;49.716;9.212;2023-05-14T00:11:06;0.20;;;0.20;;
24223;SDS011;12359;49.716;9.212;2023-05-14T00:13:33;0.20;;;0.20;;
24223;SDS011;12359;49.716;9.212;2023-05-14T00:15:59;0.20;;;0.20;;
24223;SDS011;12359;49.716;9.212;2023-05-14T00:18:25;0.20;;;0.20;;
24223;SDS011;12359;49.716;9.212;2023-05-14T00:20:50;0.20;;;0.20;;
24223;SDS011;12359;49.716;9.212;2023-05-14T00:23:19;0.20;;;0.20;;
24223;SDS011;12359;49.716;9.212;2023-05-14T00:25:45;0.20;;;0.20;;
24223;SDS011;12359;49.716;9.212;2023-05-14T00:28:11;0.10;;;0.10;;
24223;SDS011;12359;49.716;9.212;2023-05-14T00:30:36;0.15;;;0.15;;
24223;SDS011;12359;49.716;9.212;2023-05-14T00:33:03;0.20;;;0.20;;
24223;SDS011;12359;49.716;9.212;2023-05-14T00:35:29;0.20;;;0.20;;
24223;SDS011;12359;49.716;9.212;2023-05-14T00:37:55;0.20;;;0.20;;
24223;SDS011;12359;49.716;9.212;2023-05-14T00:40:22;0.20;;;0.20;;
24223;SDS011;12359;49.716;9.212;2023-05-14T00:42:50;0.20;;;0.20;;
24223;SDS011;12359;49.716;9.212;2023-05-14T00:45:16;0.20;;;0.20;;
24223;SDS011;12359;49.716;9.212;2023-05-14T00:47:42;0.20;;;0.20;;
24223;SDS011;12359;49.716;9.212;2023-05-14T00:50:08;0.20;;;0.20;;
24223;SDS011;12359;49.716;9.212;2023-05-14T00:52:35;0.20;;;0.20;;
24223;SDS011;12359;49.716;9.212;2023-05-14T00:55:03;0.20;;;0.20;;
24223;SDS011;12359;49.716;9.212;2023-05-14T00:57:30;0.20;;;0.20;;
24223;SDS011;12359;49.716;9.212;2023-05-14T00:59:56;0.20;;;0.20;;
24223;SDS011;12359;49.716;9.212;2023-05-14T01:02:22;0.20;;;0.20;;
24223;SDS011;12359;49.716;9.212;2023-05-14T01:04:48;0.20;;;0.20;;
24223;SDS011;12359;49.716;9.212;2023-05-14T01:12:40;0.20;;;0.20;;
24223;SDS011;12359;49.716;9.212;2023-05-14T01:15:29;0.20;;;0.20;;
24223;SDS011;12359;49.716;9.212;2023-05-14T01:18:03;0.17;;;0.17;;
24223;SDS011;12359;49.716;9.212;2023-05-14T01:20:32;0.20;;;0.20;;
24223;SDS011;12359;49.716;9.212;2023-05-14T01:22:58;0.20;;;0.20;;
24223;SDS011;12359;49.716;9.212;2023-05-14T01:25:24;0.10;;;0.10;;
24223;SDS011;12359;49.716;9.212;2023-05-14T01:30:32;0.20;;;0.20;;
24223;SDS011;12359;49.716;9.212;2023-05-14T01:32:59;0.10;;;0.10;;
24223;SDS011;12359;49.716;9.212;2023-05-14T01:35:31;0.20;;;0.20;;
24223;SDS011;12359;49.716;9.212;2023-05-14T01:37:58;0.20;;;0.20;;
24223;SDS011;12359;49.716;9.212;2023-05-14T01:40:25;0.20;;;0.20;;
24223;SDS011;12359;49.716;9.212;2023-05-14T01:42:52;0.20;;;0.20;;
24223;SDS011;12359;49.716;9.212;2023-05-14T01:45:19;0.20;;;0.20;;
24223;SDS011;12359;49.716;9.212;2023-05-14T01:47:45;0.20;;;0.20;;
24223;SDS011;12359;49.716;9.212;2023-05-14T01:50:11;0.20;;;0.20;;
24223;SDS011;12359;49.716;9.212;2023-05-14T01:52:37;0.20;;;0.20;;
24223;SDS011;12359;49.716;9.212;2023-05-14T01:55:03;0.20;;;0.20;;
24223;SDS011;12359;49.716;9.212;2023-05-14T01:57:30;0.20;;;0.20;;
24223;SDS011;12359;49.716;9.212;2023-05-14T01:59:55;0.15;;;0.15;;
24223;SDS011;12359;49.716;9.212;2023-05-14T02:02:21;0.20;;;0.20;;
24223;SDS011;12359;49.716;9.212;2023-05-14T02:04:47;0.20;;;0.20;;
24223;SDS011;12359;49.716;9.212;2023-05-14T02:07:12;0.20;;;0.20;;
24223;SDS011;12359;49.716;9.212;2023-05-14T02:09:38;0.20;;;0.20;;
24223;SDS011;12359;49.716;9.212;2023-05-14T02:12:05;0.20;;;0.20;;
24223;SDS011;12359;49.716;9.212;2023-05-14T02:14:32;0.20;;;0.20;;
24223;SDS011;12359;49.716;9.212;2023-05-14T02:16:57;0.20;;;0.20;;
24223;SDS011;12359;49.716;9.212;2023-05-14T02:19:23;0.17;;;0.17;;
24223;SDS011;12359;49.716;9.212;2023-05-14T02:21:49;0.20;;;0.20;;
24223;SDS011;12359;49.716;9.212;2023-05-14T02:24:15;0.15;;;0.15;;
24223;SDS011;12359;49.716;9.212;2023-05-14T02:26:41;0.28;;;0.28;;
24223;SDS011;12359;49.716;9.212;2023-05-14T02:29:06;0.20;;;0.20;;
24223;SDS011;12359;49.716;9.212;2023-05-14T02:31:33;0.20;;;0.20;;
24223;SDS011;12359;49.716;9.212;2023-05-14T02:34:00;0.20;;;0.20;;
24223;SDS011;12359;49.716;9.212;2023-05-14T02:36:26;0.20;;;0.20;;
24223;SDS011;12359;49.716;9.212;2023-05-14T02:38:52;0.20;;;0.20;;
24223;SDS011;12359;49.716;9.212;2023-05-14T02:41:17;0.20;;;0.20;;
24223;SDS011;12359;49.716;9.212;2023-05-14T02:43:43;0.20;;;0.20;;
24223;SDS011;12359;49.716;9.212;2023-05-14T02:46:10;0.20;;;0.20;;
24223;SDS011;12359;49.716;9.212;2023-05-14T02:48:35;0.20;;;0.20;;
24223;SDS011;12359;49.716;9.212;2023-05-14T02:51:01;0.20;;;0.20;;
24223;SDS011;12359;49.716;9.212;2023-05-14T02:53:27;0.20;;;0.20;;
24223;SDS011;12359;49.716;9.212;2023-05-14T02:55:52;0.20;;;0.20;;
24223;SDS011;12359;49.716;9.212;2023-05-14T02:58:18;0.20;;;0.20;;
24223;SDS011;12359;49.716;9.212;2023-05-14T03:00:44;0.20;;;0.20;;
24223;SDS011;12359;49.716;9.212;2023-05-14T03:03:09;0.20;;;0.20;;
24223;SDS011;12359;49.716;9.212;2023-05-14T03:05:35;0.20;;;0.20;;
24223;SDS011;12359;49.716;9.212;2023-05-14T03:08:01;0.20;;;0.20;;
24223;SDS011;12359;49.716;9.212;2023-05-14T03:10:26;0.20;;;0.20;;
24223;SDS011;12359;49.716;9.212;2023-05-14T03:12:52;0.20;;;0.20;;
24223;SDS011;12359;49.716;9.212;2023-05-14T03:15:18;0.20;;;0.20;;
24223;SDS011;12359;49.716;9.212;2023-05-14T03:17:44;0.20;;;0.20;;
24223;SDS011;12359;49.716;9.212;2023-05-14T03:20:09;0.20;;;0.20;;
24223;SDS011;12359;49.716;9.212;2023-05-14T03:22:36;0.20;;;0.20;;
24223;SDS011;12359;49.716;9.212;2023-05-14T03:25:02;0.20;;;0.20;;
24223;SDS011;12359;49.716;9.212;2023-05-14T03:27:29;0.20;;;0.20;;
24223;SDS011;12359;49.716;9.212;2023-05-14T03:29:54;0.20;;;0.20;;
24223;SDS011;12359;49.716;9.212;2023-05-14T03:32:20;0.20;;;0.20;;
24223;SDS011;12359;49.716;9.212;2023-05-14T03:34:46;0.20;;;0.20;;
24223;SDS011;12359;49.716;9.212;2023-05-14T03:37:11;0.20;;;0.20;;
24223;SDS011;12359;49.716;9.212;2023-05-14T03:39:37;0.20;;;0.20;;
24223;SDS011;12359;49.716;9.212;2023-05-14T03:42:03;0.20;;;0.20;;
24223;SDS011;12359;49.716;9.212;2023-05-14T03:44:29;0.20;;;0.20;;
24223;SDS011;12359;49.716;9.212;2023-05-14T03:46:54;0.20;;;0.20;;
24223;SDS011;12359;49.716;9.212;2023-05-14T03:49:20;0.20;;;0.20;;
24223;SDS011;12359;49.716;9.212;2023-05-14T03:51:46;0.20;;;0.20;;
24223;SDS011;12359;49.716;9.212;2023-05-14T03:54:11;0.25;;;0.25;;
24223;SDS011;12359;49.716;9.212;2023-05-14T03:56:37;0.20;;;0.20;;
24223;SDS011;12359;49.716;9.212;2023-05-14T03:59:02;0.20;;;0.20;;
24223;SDS011;12359;49.716;9.212;2023-05-14T04:01:28;0.20;;;0.20;;
24223;SDS011;12359;49.716;9.212;2023-05-14T04:03:54;0.20;;;0.20;;
24223;SDS011;12359;49.716;9.212;2023-05-14T04:06:19;0.13;;;0.13;;
24223;SDS011;12359;49.716;9.212;2023-05-14T04:08:45;0.20;;;0.20;;
24223;SDS011;12359;49.716;9.212;2023-05-14T04:11:11;0.20;;;0.20;;
24223;SDS011;12359;49.716;9.212;2023-05-14T04:13:36;0.20;;;0.20;;
24223;SDS011;12359;49.716;9.212;2023-05-14T04:16:02;0.20;;;0.20;;
24223;SDS011;12359;49.716;9.212;2023-05-14T04:18:28;0.10;;;0.10;;
24223;SDS011;12359;49.716;9.212;2023-05-14T04:20:54;0.20;;;0.20;;
24223;SDS011;12359;49.716;9.212;2023-05-14T04:23:20;0.20;;;0.20;;
24223;SDS011;12359;49.716;9.212;2023-05-14T04:25:46;0.20;;;0.20;;
24223;SDS011;12359;49.716;9.212;2023-05-14T04:28:11;0.20;;;0.20;;
24223;SDS011;12359;49.716;9.212;2023-05-14T04:30:37;0.20;;;0.20;;
24223;SDS011;12359;49.716;9.212;2023-05-14T04:33:03;0.20;;;0.20;;
24223;SDS011;12359;49.716;9.212;2023-05-14T04:35:28;0.20;;;0.20;;
24223;SDS011;12359;49.716;9.212;2023-05-14T04:37:54;0.20;;;0.20;;
24223;SDS011;12359;49.716;9.212;2023-05-14T04:40:19;0.10;;;0.10;;
24223;SDS011;12359;49.716;9.212;2023-05-14T04:42:46;0.20;;;0.20;;
24223;SDS011;12359;49.716;9.212;2023-05-14T04:45:12;0.20;;;0.20;;
24223;SDS011;12359;49.716;9.212;2023-05-14T04:47:38;0.20;;;0.20;;
24223;SDS011;12359;49.716;9.212;2023-05-14T04:50:04;0.20;;;0.20;;
24223;SDS011;12359;49.716;9.212;2023-05-14T04:52:31;0.20;;;0.20;;
24223;SDS011;12359;49.716;9.212;2023-05-14T04:54:57;0.20;;;0.20;;
24223;SDS011;12359;49.716;9.212;2023-05-14T04:57:23;0.20;;;0.20;;
24223;SDS011;12359;49.716;9.212;2023-05-14T04:59:48;0.20;;;0.20;;
24223;SDS011;12359;49.716;9.212;2023-05-14T05:02:14;0.20;;;0.20;;
24223;SDS011;12359;49.716;9.212;2023-05-14T05:04:40;0.20;;;0.20;;
24223;SDS011;12359;49.716;9.212;2023-05-14T05:07:05;0.20;;;0.20;;
24223;SDS011;12359;49.716;9.212;2023-05-14T05:09:31;0.20;;;0.20;;
24223;SDS011;12359;49.716;9.212;2023-05-14T05:11:57;0.20;;;0.20;;
24223;SDS011;12359;49.716;9.212;2023-05-14T05:14:22;0.20;;;0.20;;
24223;SDS011;12359;49.716;9.212;2023-05-14T05:16:49;0.13;;;0.13;;
24223;SDS011;12359;49.716;9.212;2023-05-14T05:19:15;0.20;;;0.20;;
24223;SDS011;12359;49.716;9.212;2023-05-14T05:21:41;0.10;;;0.10;;
24223;SDS011;12359;49.716;9.212;2023-05-14T05:24:06;0.20;;;0.20;;
24223;SDS011;12359;49.716;9.212;2023-05-14T05:26:32;0.20;;;0.20;;
24223;SDS011;12359;49.716;9.212;2023-05-14T05:29:01;0.20;;;0.20;;
24223;SDS011;12359;49.716;9.212;2023-05-14T05:31:27;0.20;;;0.20;;
24223;SDS011;12359;49.716;9.212;2023-05-14T05:33:53;0.10;;;0.10;;
24223;SDS011;12359;49.716;9.212;2023-05-14T05:36:19;0.20;;;0.20;;
24223;SDS011;12359;49.716;9.212;2023-05-14T05:38:44;0.20;;;0.20;;
24223;SDS011;12359;49.716;9.212;2023-05-14T05:41:10;0.20;;;0.20;;
24223;SDS011;12359;49.716;9.212;2023-05-14T05:43:36;0.20;;;0.20;;
24223;SDS011;12359;49.716;9.212;2023-05-14T05:46:01;0.20;;;0.20;;
24223;SDS011;12359;49.716;9.212;2023-05-14T05:48:27;0.20;;;0.20;;
24223;SDS011;12359;49.716;9.212;2023-05-14T05:50:53;0.20;;;0.20;;
24223;SDS011;12359;49.716;9.212;2023-05-14T05:53:18;0.25;;;0.25;;
24223;SDS011;12359;49.716;9.212;2023-05-14T05:55:44;0.20;;;0.20;;
24223;SDS011;12359;49.716;9.212;2023-05-14T05:58:10;0.20;;;0.20;;
24223;SDS011;12359;49.716;9.212;2023-05-14T06:00:36;0.10;;;0.10;;
24223;SDS011;12359;49.716;9.212;2023-05-14T06:03:02;0.10;;;0.10;;
24223;SDS011;12359;49.716;9.212;2023-05-14T06:05:27;0.20;;;0.20;;
24223;SDS011;12359;49.716;9.212;2023-05-14T06:07:53;0.20;;;0.20;;
24223;SDS011;12359;49.716;9.212;2023-05-14T06:10:19;0.20;;;0.20;;
24223;SDS011;12359;49.716;9.212;2023-05-14T06:12:44;0.20;;;0.20;;
24223;SDS011;12359;49.716;9.212;2023-05-14T06:15:11;0.20;;;0.20;;
24223;SDS011;12359;49.716;9.212;2023-05-14T06:17:37;0.20;;;0.20;;
24223;SDS011;12359;49.716;9.212;2023-05-14T06:20:03;0.20;;;0.20;;
24223;SDS011;12359;49.716;9.212;2023-05-14T06:22:29;0.10;;;0.10;;
24223;SDS011;12359;49.716;9.212;2023-05-14T06:24:55;0.20;;;0.20;;
24223;SDS011;12359;49.716;9.212;2023-05-14T06:27:21;0.20;;;0.20;;
24223;SDS011;12359;49.716;9.212;2023-05-14T06:29:46;0.20;;;0.20;;
24223;SDS011;12359;49.716;9.212;2023-05-14T06:32:12;0.10;;;0.10;;
24223;SDS011;12359;49.716;9.212;2023-05-14T06:34:40;0.17;;;0.17;;
24223;SDS011;12359;49.716;9.212;2023-05-14T06:37:06;0.10;;;0.10;;
24223;SDS011;12359;49.716;9.212;2023-05-14T06:39:33;0.20;;;0.20;;
24223;SDS011;12359;49.716;9.212;2023-05-14T06:41:59;0.20;;;0.20;;
24223;SDS011;12359;49.716;9.212;2023-05-14T06:44:25;0.10;;;0.10;;
24223;SDS011;12359;49.716;9.212;2023-05-14T06:46:51;0.10;;;0.10;;
24223;SDS011;12359;49.716;9.212;2023-05-14T06:49:17;0.20;;;0.20;;
24223;SDS011;12359;49.716;9.212;2023-05-14T06:51:43;0.10;;;0.10;;
24223;SDS011;12359;49.716;9.212;2023-05-14T06:54:08;0.10;;;0.10;;
24223;SDS011;12359;49.716;9.212;2023-05-14T06:56:34;0.20;;;0.20;;
24223;SDS011;12359;49.716;9.212;2023-05-14T06:59:00;0.17;;;0.17;;
24223;SDS011;12359;49.716;9.212;2023-05-14T07:01:26;0.20;;;0.20;;
24223;SDS011;12359;49.716;9.212;2023-05-14T07:03:51;0.20;;;0.20;;
24223;SDS011;12359;49.716;9.212;2023-05-14T07:06:17;0.13;;;0.13;;
24223;SDS011;12359;49.716;9.212;2023-05-14T07:08:43;0.10;;;0.10;;
24223;SDS011;12359;49.716;9.212;2023-05-14T07:11:11;0.10;;;0.10;;
24223;SDS011;12359;49.716;9.212;2023-05-14T07:13:37;0.10;;;0.10;;
24223;SDS011;12359;49.716;9.212;2023-05-14T07:16:04;0.13;;;0.13;;
24223;SDS011;12359;49.716;9.212;2023-05-14T07:18:31;0.20;;;0.20;;
24223;SDS011;12359;49.716;9.212;2023-05-14T07:20:56;0.10;;;0.10;;
24223;SDS011;12359;49.716;9.212;2023-05-14T07:23:22;0.10;;;0.10;;
24223;SDS011;12359;49.716;9.212;2023-05-14T07:25:48;0.13;;;0.13;;
24223;SDS011;12359;49.716;9.212;2023-05-14T07:28:13;0.10;;;0.10;;
24223;SDS011;12359;49.716;9.212;2023-05-14T07:30:39;0.10;;;0.10;;
24223;SDS011;12359;49.716;9.212;2023-05-14T07:33:05;0.10;;;0.10;;
24223;SDS011;12359;49.716;9.212;2023-05-14T07:35:30;0.10;;;0.10;;
24223;SDS011;12359;49.716;9.212;2023-05-14T07:37:56;0.10;;;0.10;;
24223;SDS011;12359;49.716;9.212;2023-05-14T07:40:22;0.00;;;0.00;;
24223;SDS011;12359;49.716;9.212;2023-05-14T07:42:49;0.00;;;0.00;;
24223;SDS011;12359;49.716;9.212;2023-05-14T07:45:15;0.00;;;0.00;;
24223;SDS011;12359;49.716;9.212;2023-05-14T07:47:41;0.00;;;0.00;;
24223;SDS011;12359;49.716;9.212;2023-05-14T07:50:07;0.00;;;0.00;;
24223;SDS011;12359;49.716;9.212;2023-05-14T07:52:33;0.00;;;0.00;;
24223;SDS011;12359;49.716;9.212;2023-05-14T07:54:58;0.00;;;0.00;;
24223;SDS011;12359;49.716;9.212;2023-05-14T07:57:25;0.00;;;0.00;;
24223;SDS011;12359;49.716;9.212;2023-05-14T07:59:51;0.00;;;0.00;;
24223;SDS011;12359;49.716;9.212;2023-05-14T08:02:16;0.00;;;0.00;;
24223;SDS011;12359;49.716;9.212;2023-05-14T08:04:42;0.00;;;0.00;;
24223;SDS011;12359;49.716;9.212;2023-05-14T08:07:08;0.00;;;0.00;;
24223;SDS011;12359;49.716;9.212;2023-05-14T08:09:34;0.00;;;0.00;;
24223;SDS011;12359;49.716;9.212;2023-05-14T08:12:00;0.00;;;0.00;;
24223;SDS011;12359;49.716;9.212;2023-05-14T08:14:25;0.00;;;0.00;;
24223;SDS011;12359;49.716;9.212;2023-05-14T08:16:51;0.00;;;0.00;;
24223;SDS011;12359;49.716;9.212;2023-05-14T08:19:17;0.00;;;0.00;;
24223;SDS011;12359;49.716;9.212;2023-05-14T08:21:43;0.00;;;0.00;;
24223;SDS011;12359;49.716;9.212;2023-05-14T08:24:08;0.00;;;0.00;;
24223;SDS011;12359;49.716;9.212;2023-05-14T08:26:35;0.00;;;0.00;;
24223;SDS011;12359;49.716;9.212;2023-05-14T08:29:02;0.00;;;0.00;;
24223;SDS011;12359;49.716;9.212;2023-05-14T08:31:28;0.00;;;0.00;;
24223;SDS011;12359;49.716;9.212;2023-05-14T08:33:54;0.00;;;0.00;;
24223;SDS011;12359;49.716;9.212;2023-05-14T08:36:20;0.00;;;0.00;;
24223;SDS011;12359;49.716;9.212;2023-05-14T08:38:46;0.00;;;0.00;;
24223;SDS011;12359;49.716;9.212;2023-05-14T08:41:12;0.00;;;0.00;;
24223;SDS011;12359;49.716;9.212;2023-05-14T08:46:15;0.10;;;0.10;;
24223;SDS011;12359;49.716;9.212;2023-05-14T08:48:42;0.00;;;0.00;;
24223;SDS011;12359;49.716;9.212;2023-05-14T08:51:12;0.00;;;0.00;;
24223;SDS011;12359;49.716;9.212;2023-05-14T08:53:38;0.00;;;0.00;;
24223;SDS011;12359;49.716;9.212;2023-05-14T08:56:05;0.00;;;0.00;;
24223;SDS011;12359;49.716;9.212;2023-05-14T08:58:32;0.00;;;0.00;;
24223;SDS011;12359;49.716;9.212;2023-05-14T09:00:58;0.00;;;0.00;;
24223;SDS011;12359;49.716;9.212;2023-05-14T09:03:23;0.00;;;0.00;;
24223;SDS011;12359;49.716;9.212;2023-05-14T09:05:49;0.00;;;0.00;;
24223;SDS011;12359;49.716;9.212;2023-05-14T09:08:16;0.00;;;0.00;;
24223;SDS011;12359;49.716;9.212;2023-05-14T09:10:41;0.00;;;0.00;;
24223;SDS011;12359;49.716;9.212;2023-05-14T09:13:07;0.00;;;0.00;;
24223;SDS011;12359;49.716;9.212;2023-05-14T09:15:35;0.10;;;0.10;;
24223;SDS011;12359;49.716;9.212;2023-05-14T09:18:03;0.00;;;0.00;;
24223;SDS011;12359;49.716;9.212;2023-05-14T09:20:30;0.00;;;0.00;;
24223;SDS011;12359;49.716;9.212;2023-05-14T09:22:57;0.00;;;0.00;;
24223;SDS011;12359;49.716;9.212;2023-05-14T09:25:26;0.10;;;0.10;;
24223;SDS011;12359;49.716;9.212;2023-05-14T09:27:55;0.10;;;0.10;;
24223;SDS011;12359;49.716;9.212;2023-05-14T09:30:22;0.08;;;0.08;;
24223;SDS011;12359;49.716;9.212;2023-05-14T09:32:49;0.10;;;0.10;;
24223;SDS011;12359;49.716;9.212;2023-05-14T09:35:19;0.10;;;0.10;;
24223;SDS011;12359;49.716;9.212;2023-05-14T09:37:47;0.10;;;0.10;;
24223;SDS011;12359;49.716;9.212;2023-05-14T09:40:20;0.10;;;0.10;;
24223;SDS011;12359;49.716;9.212;2023-05-14T09:42:47;0.10;;;0.10;;
24223;SDS011;12359;49.716;9.212;2023-05-14T09:45:13;0.10;;;0.10;;
24223;SDS011;12359;49.716;9.212;2023-05-14T09:47:39;0.10;;;0.10;;
24223;SDS011;12359;49.716;9.212;2023-05-14T09:50:05;0.10;;;0.10;;
24223;SDS011;12359;49.716;9.212;2023-05-14T09:52:32;0.10;;;0.10;;
24223;SDS011;12359;49.716;9.212;2023-05-14T09:54:58;0.10;;;0.10;;
24223;SDS011;12359;49.716;9.212;2023-05-14T09:57:24;0.10;;;0.10;;
24223;SDS011;12359;49.716;9.212;2023-05-14T09:59:51;0.10;;;0.10;;
24223;SDS011;12359;49.716;9.212;2023-05-14T10:02:21;0.10;;;0.10;;
24223;SDS011;12359;49.716;9.212;2023-05-14T10:04:49;0.10;;;0.10;;
24223;SDS011;12359;49.716;9.212;2023-05-14T10:07:18;0.10;;;0.10;;
24223;SDS011;12359;49.716;9.212;2023-05-14T10:09:47;0.10;;;0.10;;
24223;SDS011;12359;49.716;9.212;2023-05-14T10:12:14;0.10;;;0.10;;
24223;SDS011;12359;49.716;9.212;2023-05-14T10:14:46;0.10;;;0.10;;
24223;SDS011;12359;49.716;9.212;2023-05-14T10:17:18;0.10;;;0.10;;
24223;SDS011;12359;49.716;9.212;2023-05-14T10:19:46;0.10;;;0.10;;
24223;SDS011;12359;49.716;9.212;2023-05-14T10:22:18;0.10;;;0.10;;
24223;SDS011;12359;49.716;9.212;2023-05-14T10:24:47;0.10;;;0.10;;
24223;SDS011;12359;49.716;9.212;2023-05-14T10:27:16;0.10;;;0.10;;
24223;SDS011;12359;49.716;9.212;2023-05-14T10:29:53;0.10;;;0.10;;
24223;SDS011;12359;49.716;9.212;2023-05-14T10:32:20;0.10;;;0.10;;
24223;SDS011;12359;49.716;9.212;2023-05-14T10:34:49;0.10;;;0.10;;
24223;SDS011;12359;49.716;9.212;2023-05-14T10:39:58;0.10;;;0.10;;
24223;SDS011;12359;49.716;9.212;2023-05-14T10:45:00;0.10;;;0.10;;
24223;SDS011;12359;49.716;9.212;2023-05-14T10:47:31;0.10;;;0.10;;
24223;SDS011;12359;49.716;9.212;2023-05-14T10:49:58;0.10;;;0.10;;
24223;SDS011;12359;49.716;9.212;2023-05-14T10:52:25;0.10;;;0.10;;
24223;SDS011;12359;49.716;9.212;2023-05-14T10:55:00;0.10;;;0.10;;
24223;SDS011;12359;49.716;9.212;2023-05-14T10:57:29;0.10;;;0.10;;
24223;SDS011;12359;49.716;9.212;2023-05-14T10:59:56;0.10;;;0.10;;
24223;SDS011;12359;49.716;9.212;2023-05-14T11:07:28;0.10;;;0.10;;
24223;SDS011;12359;49.716;9.212;2023-05-14T11:10:14;0.10;;;0.10;;
24223;SDS011;12359;49.716;9.212;2023-05-14T11:12:42;0.10;;;0.10;;
24223;SDS011;12359;49.716;9.212;2023-05-14T11:15:10;0.10;;;0.10;;
24223;SDS011;12359;49.716;9.212;2023-05-14T11:17:38;0.10;;;0.10;;
24223;SDS011;12359;49.716;9.212;2023-05-14T11:20:05;0.10;;;0.10;;
24223;SDS011;12359;49.716;9.212;2023-05-14T11:22:35;0.10;;;0.10;;
24223;SDS011;12359;49.716;9.212;2023-05-14T11:25:01;0.10;;;0.10;;
24223;SDS011;12359;49.716;9.212;2023-05-14T11:27:28;0.10;;;0.10;;
24223;SDS011;12359;49.716;9.212;2023-05-14T11:29:54;0.10;;;0.10;;
24223;SDS011;12359;49.716;9.212;2023-05-14T11:32:22;0.10;;;0.10;;
24223;SDS011;12359;49.716;9.212;2023-05-14T11:34:48;0.10;;;0.10;;
24223;SDS011;12359;49.716;9.212;2023-05-14T11:37:14;0.10;;;0.10;;
24223;SDS011;12359;49.716;9.212;2023-05-14T11:39:50;0.10;;;0.10;;
24223;SDS011;12359;49.716;9.212;2023-05-14T11:42:17;0.10;;;0.10;;
24223;SDS011;12359;49.716;9.212;2023-05-14T11:44:50;0.10;;;0.10;;
24223;SDS011;12359;49.716;9.212;2023-05-14T11:47:18;0.10;;;0.10;;
24223;SDS011;12359;49.716;9.212;2023-05-14T11:49:45;0.10;;;0.10;;
24223;SDS011;12359;49.716;9.212;2023-05-14T11:52:12;0.10;;;0.10;;
24223;SDS011;12359;49.716;9.212;2023-05-14T11:54:39;0.10;;;0.10;;
24223;SDS011;12359;49.716;9.212;2023-05-14T11:57:09;0.10;;;0.10;;
24223;SDS011;12359;49.716;9.212;2023-05-14T11:59:42;0.10;;;0.10;;
24223;SDS011;12359;49.716;9.212;2023-05-14T12:02:12;0.10;;;0.10;;
24223;SDS011;12359;49.716;9.212;2023-05-14T12:04:42;0.10;;;0.10;;
24223;SDS011;12359;49.716;9.212;2023-05-14T12:09:36;0.10;;;0.10;;
24223;SDS011;12359;49.716;9.212;2023-05-14T12:12:09;0.10;;;0.10;;
24223;SDS011;12359;49.716;9.212;2023-05-14T12:14:36;0.10;;;0.10;;
24223;SDS011;12359;49.716;9.212;2023-05-14T12:17:19;0.10;;;0.10;;
24223;SDS011;12359;49.716;9.212;2023-05-14T12:19:47;0.10;;;0.10;;
24223;SDS011;12359;49.716;9.212;2023-05-14T12:22:15;0.10;;;0.10;;
24223;SDS011;12359;49.716;9.212;2023-05-14T12:24:55;0.10;;;0.10;;
24223;SDS011;12359;49.716;9.212;2023-05-14T12:27:22;0.10;;;0.10;;
24223;SDS011;12359;49.716;9.212;2023-05-14T12:29:49;0.10;;;0.10;;
24223;SDS011;12359;49.716;9.212;2023-05-14T12:32:22;0.08;;;0.08;;
24223;SDS011;12359;49.716;9.212;2023-05-14T12:34:50;0.10;;;0.10;;
24223;SDS011;12359;49.716;9.212;2023-05-14T12:37:15;0.10;;;0.10;;
24223;SDS011;12359;49.716;9.212;2023-05-14T12:39:42;0.10;;;0.10;;
24223;SDS011;12359;49.716;9.212;2023-05-14T12:42:08;0.00;;;0.00;;
24223;SDS011;12359;49.716;9.212;2023-05-14T12:44:33;0.10;;;0.10;;
24223;SDS011;12359;49.716;9.212;2023-05-14T12:46:59;0.08;;;0.08;;
24223;SDS011;12359;49.716;9.212;2023-05-14T12:49:25;0.10;;;0.10;;
24223;SDS011;12359;49.716;9.212;2023-05-14T12:51:50;0.10;;;0.10;;
24223;SDS011;12359;49.716;9.212;2023-05-14T12:54:16;0.10;;;0.10;;
24223;SDS011;12359;49.716;9.212;2023-05-14T12:56:42;0.10;;;0.10;;
24223;SDS011;12359;49.716;9.212;2023-05-14T12:59:07;0.10;;;0.10;;
24223;SDS011;12359;49.716;9.212;2023-05-14T13:01:33;0.10;;;0.10;;
24223;SDS011;12359;49.716;9.212;2023-05-14T13:03:59;0.10;;;0.10;;
24223;SDS011;12359;49.716;9.212;2023-05-14T13:06:25;0.10;;;0.10;;
24223;SDS011;12359;49.716;9.212;2023-05-14T13:08:50;0.10;;;0.10;;
24223;SDS011;12359;49.716;9.212;2023-05-14T13:11:16;0.10;;;0.10;;
24223;SDS011;12359;49.716;9.212;2023-05-14T13:13:42;0.08;;;0.08;;
24223;SDS011;12359;49.716;9.212;2023-05-14T13:16:07;0.10;;;0.10;;
24223;SDS011;12359;49.716;9.212;2023-05-14T13:18:34;0.00;;;0.00;;
24223;SDS011;12359;49.716;9.212;2023-05-14T13:20:59;0.10;;;0.10;;
24223;SDS011;12359;49.716;9.212;2023-05-14T13:23:28;0.00;;;0.00;;
24223;SDS011;12359;49.716;9.212;2023-05-14T13:25:53;0.00;;;0.00;;
24223;SDS011;12359;49.716;9.212;2023-05-14T13:28:19;0.10;;;0.10;;
24223;SDS011;12359;49.716;9.212;2023-05-14T13:33:28;0.10;;;0.10;;
24223;SDS011;12359;49.716;9.212;2023-05-14T13:35:53;0.00;;;0.00;;
24223;SDS011;12359;49.716;9.212;2023-05-14T13:38:19;0.00;;;0.00;;
24223;SDS011;12359;49.716;9.212;2023-05-14T13:40:45;0.10;;;0.10;;
24223;SDS011;12359;49.716;9.212;2023-05-14T13:43:10;0.10;;;0.10;;
24223;SDS011;12359;49.716;9.212;2023-05-14T13:45:36;0.10;;;0.10;;
24223;SDS011;12359;49.716;9.212;2023-05-14T13:48:01;0.10;;;0.10;;
24223;SDS011;12359;49.716;9.212;2023-05-14T13:50:27;0.10;;;0.10;;
24223;SDS011;12359;49.716;9.212;2023-05-14T13:52:53;0.10;;;0.10;;
24223;SDS011;12359;49.716;9.212;2023-05-14T13:55:18;0.10;;;0.10;;
24223;SDS011;12359;49.716;9.212;2023-05-14T13:57:44;0.10;;;0.10;;
24223;SDS011;12359;49.716;9.212;2023-05-14T14:00:10;0.10;;;0.10;;
24223;SDS011;12359;49.716;9.212;2023-05-14T14:02:37;0.10;;;0.10;;
24223;SDS011;12359;49.716;9.212;2023-05-14T14:05:03;0.10;;;0.10;;
24223;SDS011;12359;49.716;9.212;2023-05-14T14:07:29;0.00;;;0.00;;
24223;SDS011;12359;49.716;9.212;2023-05-14T14:09:55;0.10;;;0.10;;
24223;SDS011;12359;49.716;9.212;2023-05-14T14:12:20;0.10;;;0.10;;
24223;SDS011;12359;49.716;9.212;2023-05-14T14:14:46;0.10;;;0.10;;
24223;SDS011;12359;49.716;9.212;2023-05-14T14:17:11;0.00;;;0.00;;
24223;SDS011;12359;49.716;9.212;2023-05-14T14:19:37;0.00;;;0.00;;
24223;SDS011;12359;49.716;9.212;2023-05-14T14:22:03;0.10;;;0.10;;
24223;SDS011;12359;49.716;9.212;2023-05-14T14:24:29;0.00;;;0.00;;
24223;SDS011;12359;49.716;9.212;2023-05-14T14:26:55;0.10;;;0.10;;
24223;SDS011;12359;49.716;9.212;2023-05-14T14:29:20;0.10;;;0.10;;
24223;SDS011;12359;49.716;9.212;2023-05-14T14:31:47;0.10;;;0.10;;
24223;SDS011;12359;49.716;9.212;2023-05-14T14:34:13;0.00;;;0.00;;
24223;SDS011;12359;49.716;9.212;2023-05-14T14:36:39;0.00;;;0.00;;
24223;SDS011;12359;49.716;9.212;2023-05-14T14:39:04;0.10;;;0.10;;
24223;SDS011;12359;49.716;9.212;2023-05-14T14:41:30;0.10;;;0.10;;
24223;SDS011;12359;49.716;9.212;2023-05-14T14:43:56;0.10;;;0.10;;
24223;SDS011;12359;49.716;9.212;2023-05-14T14:46:21;0.10;;;0.10;;
24223;SDS011;12359;49.716;9.212;2023-05-14T14:48:47;0.10;;;0.10;;
24223;SDS011;12359;49.716;9.212;2023-05-14T14:51:13;0.10;;;0.10;;
24223;SDS011;12359;49.716;9.212;2023-05-14T14:53:38;0.10;;;0.10;;
24223;SDS011;12359;49.716;9.212;2023-05-14T14:56:05;0.10;;;0.10;;
24223;SDS011;12359;49.716;9.212;2023-05-14T14:58:31;0.00;;;0.00;;
24223;SDS011;12359;49.716;9.212;2023-05-14T15:00:57;0.05;;;0.05;;
24223;SDS011;12359;49.716;9.212;2023-05-14T15:03:23;0.10;;;0.10;;
24223;SDS011;12359;49.716;9.212;2023-05-14T15:05:49;0.10;;;0.10;;
24223;SDS011;12359;49.716;9.212;2023-05-14T15:08:16;0.10;;;0.10;;
24223;SDS011;12359;49.716;9.212;2023-05-14T15:10:42;0.10;;;0.10;;